Time;durP1;ratioP1;P1;durP2;ratioP2;P2;SDS_P1;SDS_P2;PMS_P1;PMS_P2;Temp;Humidity;BMP_temperature;BMP_pressure;BME280_temperature;BME280_humidity;BME280_pressure;Samples;Min_cycle;Max_cycle;Signal;HPM_P1;HPM_P2
2021/06/10 00:01:28;;;;;;;3.22;2.67;;;;;;;15.61;77.33;99240.41;6121286;23;20025;-80
2021/06/10 00:03:54;;;;;;;5.13;2.97;;;;;;;15.55;77.44;99238.47;6122232;23;20021;-78
2021/06/10 00:06:20;;;;;;;3.35;3.03;;;;;;;15.51;77.70;99236.31;6121555;23;20018;-79
2021/06/10 00:08:46;;;;;;;3.33;3.00;;;;;;;15.49;77.66;99231.03;6095137;23;20048;-79
2021/06/10 00:11:11;;;;;;;3.38;2.72;;;;;;;15.50;77.62;99245.50;6122334;23;20647;-80
2021/06/10 00:13:37;;;;;;;3.45;2.78;;;;;;;15.54;77.47;99247.69;6123529;23;20014;-79
2021/06/10 00:16:04;;;;;;;2.92;2.67;;;;;;;15.54;77.32;99244.09;6121124;23;20018;-79
2021/06/10 00:18:29;;;;;;;3.67;3.00;;;;;;;15.51;77.26;99245.34;6122866;23;20022;-78
2021/06/10 00:20:55;;;;;;;2.95;2.70;;;;;;;15.43;77.71;99240.00;6096318;23;20014;-77
2021/06/10 00:23:21;;;;;;;4.68;2.90;;;;;;;15.53;77.45;99251.41;6124142;23;20029;-79
2021/06/10 00:25:47;;;;;;;3.25;2.95;;;;;;;15.52;77.36;99252.47;6124435;23;20033;-81
2021/06/10 00:28:13;;;;;;;3.70;2.75;;;;;;;15.49;77.25;99247.38;6120897;23;20462;-79
2021/06/10 00:30:39;;;;;;;3.58;2.90;;;;;;;15.48;77.23;99251.16;6123693;23;20202;-79
2021/06/10 00:33:05;;;;;;;3.22;2.83;;;;;;;15.46;77.32;99255.94;6121485;23;20022;-81
2021/06/10 00:35:31;;;;;;;3.15;2.90;;;;;;;15.45;77.23;99254.25;6123045;23;20030;-81
2021/06/10 00:37:59;;;;;;;4.47;2.55;;;;;;;15.41;77.34;99247.53;6121533;23;20022;-80
2021/06/10 00:40:30;;;;;;;4.43;3.28;;;;;;;15.38;76.99;99246.00;6097338;23;20038;-80
2021/06/10 00:42:57;;;;;;;3.00;2.70;;;;;;;15.42;77.13;99243.75;6096722;23;20375;-79
2021/06/10 00:45:24;;;;;;;3.25;2.63;;;;;;;15.42;77.02;99238.31;6145976;23;20114;-79
2021/06/10 00:47:52;;;;;;;3.30;3.00;;;;;;;15.38;77.34;99242.44;6145553;23;20018;-80
2021/06/10 00:50:33;;;;;;;3.38;3.08;;;;;;;15.44;77.13;99239.81;6097252;23;20022;-80
2021/06/10 00:52:59;;;;;;;3.10;2.42;;;;;;;15.38;76.97;99239.72;6121406;23;20276;-78
2021/06/10 00:55:25;;;;;;;3.22;2.45;;;;;;;15.41;76.95;99247.53;6121837;23;20048;-80
2021/06/10 00:57:52;;;;;;;2.70;2.50;;;;;;;15.36;77.06;99239.94;6123345;23;20022;-79
2021/06/10 01:00:18;;;;;;;3.03;2.72;;;;;;;15.36;77.46;99244.53;6123634;23;20026;-77
2021/06/10 01:02:45;;;;;;;2.85;2.53;;;;;;;15.34;77.28;99242.00;6097987;23;20033;-79
2021/06/10 01:05:12;;;;;;;3.03;2.47;;;;;;;15.30;77.25;99240.69;6073637;23;20026;-80
2021/06/10 01:07:46;;;;;;;2.55;2.30;;;;;;;15.29;77.27;99239.00;6123582;23;20018;-79
2021/06/10 01:10:18;;;;;;;2.55;2.35;;;;;;;15.24;77.85;99240.59;6121589;23;20217;-79
2021/06/10 01:13:02;;;;;;;2.47;2.20;;;;;;;15.23;77.47;99238.94;6122981;23;20045;-80
2021/06/10 01:15:31;;;;;;;3.78;2.20;;;;;;;15.22;77.44;99242.69;6121645;23;20026;-79
2021/06/10 01:17:57;;;;;;;2.58;2.30;;;;;;;15.12;77.44;99232.09;6122549;23;20027;-78
2021/06/10 01:20:26;;;;;;;2.45;2.25;;;;;;;15.14;77.44;99249.94;6120705;23;20049;-79
2021/06/10 01:22:58;;;;;;;3.60;2.20;;;;;;;15.13;77.46;99231.06;6144935;23;20081;-80
2021/06/10 01:25:55;;;;;;;2.88;2.55;;;;;;;15.05;77.14;99232.00;6120993;23;20069;-80
2021/06/10 01:28:47;;;;;;;2.45;2.25;;;;;;;15.09;77.22;99219.69;6121312;23;20066;-79
2021/06/10 01:31:15;;;;;;;3.45;2.10;;;;;;;15.11;77.65;99219.53;6117161;23;20042;-78
2021/06/10 01:33:46;;;;;;;3.45;2.00;;;;;;;15.11;77.25;99214.91;6076367;23;20030;-80
2021/06/10 01:36:15;;;;;;;2.42;2.22;;;;;;;15.11;76.86;99220.38;6123590;23;20070;-81
2021/06/10 01:38:44;;;;;;;2.85;2.25;;;;;;;15.17;77.06;99224.19;6122983;23;20029;-78
2021/06/10 01:41:11;;;;;;;2.83;2.25;;;;;;;15.14;76.78;99219.16;6120874;23;20046;-78
2021/06/10 01:43:38;;;;;;;3.65;2.50;;;;;;;15.12;76.61;99221.19;6122150;23;20026;-79
2021/06/10 01:46:05;;;;;;;4.45;2.53;;;;;;;15.11;76.70;99220.38;6123949;23;20080;-79
2021/06/10 01:48:32;;;;;;;3.03;2.10;;;;;;;15.11;76.69;99208.63;6121980;23;20097;-81
2021/06/10 01:51:00;;;;;;;2.17;1.98;;;;;;;15.03;76.89;99206.88;6122539;23;20017;-80
2021/06/10 01:53:26;;;;;;;2.47;2.08;;;;;;;14.99;77.32;99221.03;6123314;23;20096;-79
2021/06/10 01:55:54;;;;;;;3.08;1.95;;;;;;;15.03;77.46;99223.19;6123804;23;20018;-79
2021/06/10 01:58:20;;;;;;;2.33;2.03;;;;;;;15.03;76.51;99217.75;6099179;23;20018;-79
2021/06/10 02:00:48;;;;;;;3.53;2.50;;;;;;;14.97;77.02;99215.78;6128945;23;20028;-77
2021/06/10 02:03:14;;;;;;;2.30;2.10;;;;;;;14.97;76.98;99212.22;6130142;23;20014;-78
2021/06/10 02:05:41;;;;;;;2.42;2.03;;;;;;;15.03;76.97;99217.75;6127728;23;20022;-77
2021/06/10 02:08:09;;;;;;;2.53;2.13;;;;;;;15.04;76.98;99214.00;6105438;23;20022;-77
2021/06/10 02:10:35;;;;;;;2.38;2.17;;;;;;;15.10;76.52;99213.25;6132691;23;20445;-82
2021/06/10 02:13:01;;;;;;;2.70;2.20;;;;;;;15.15;76.53;99223.53;6104979;23;20041;-78
2021/06/10 02:15:27;;;;;;;3.95;2.10;;;;;;;15.11;76.78;99220.38;6124054;23;20041;-79
2021/06/10 02:17:53;;;;;;;2.35;2.15;;;;;;;15.17;76.47;99230.50;6096922;23;20014;-79
2021/06/10 02:20:20;;;;;;;2.78;2.17;;;;;;;15.00;76.96;99218.13;6122595;23;20099;-80
2021/06/10 02:22:48;;;;;;;3.53;2.05;;;;;;;14.97;77.46;99228.56;6120399;23;20032;-79
2021/06/10 02:25:14;;;;;;;2.38;1.88;;;;;;;14.88;78.18;99230.53;6122803;23;20057;-80
2021/06/10 02:27:40;;;;;;;2.63;2.22;;;;;;;14.83;78.69;99225.66;6122979;23;20334;-78
2021/06/10 02:30:07;;;;;;;2.30;2.00;;;;;;;14.69;78.75;99227.34;6122558;23;20059;-79
2021/06/10 02:32:33;;;;;;;1.80;1.70;;;;;;;14.71;78.96;99241.63;6095865;23;20076;-80
2021/06/10 02:35:05;;;;;;;2.70;1.90;;;;;;;14.63;79.31;99233.56;6096154;23;20026;-79
2021/06/10 02:37:31;;;;;;;2.60;2.00;;;;;;;14.70;79.40;99229.06;6096464;23;20454;-81
2021/06/10 02:39:57;;;;;;;2.42;2.13;;;;;;;14.67;79.90;99229.44;6120011;23;20105;-78
2021/06/10 02:42:24;;;;;;;2.20;2.05;;;;;;;14.65;79.79;99226.03;6120309;23;20095;-81
2021/06/10 02:44:51;;;;;;;2.35;1.90;;;;;;;14.59;80.11;99229.53;6096105;23;20025;-80
2021/06/10 02:47:20;;;;;;;2.13;1.92;;;;;;;14.56;80.04;99221.72;6122375;23;20018;-81
2021/06/10 02:49:48;;;;;;;2.60;2.20;;;;;;;14.57;81.02;99228.84;6120815;23;20037;-78
2021/06/10 02:52:15;;;;;;;3.20;2.15;;;;;;;14.58;81.33;99225.09;6071942;23;20022;-79
2021/06/10 02:54:42;;;;;;;2.17;1.98;;;;;;;14.60;80.65;99220.31;6120156;23;20097;-80
2021/06/10 02:57:10;;;;;;;2.42;2.17;;;;;;;14.55;81.86;99209.16;6120496;23;20028;-78
2021/06/10 02:59:36;;;;;;;2.92;2.60;;;;;;;14.57;80.64;99223.41;6120487;23;20049;-79
2021/06/10 03:02:04;;;;;;;2.40;2.20;;;;;;;14.53;81.54;99216.66;6120128;23;20094;-79
2021/06/10 03:04:30;;;;;;;13.68;12.95;;;;;;;14.63;82.13;99217.22;6120333;23;20134;-79
2021/06/10 03:06:56;;;;;;;2.70;2.50;;;;;;;14.66;82.04;99208.69;6120967;23;20069;-80
2021/06/10 03:09:23;;;;;;;2.03;1.92;;;;;;;14.67;81.51;99210.38;6120994;23;20025;-80
2021/06/10 03:11:49;;;;;;;2.10;2.00;;;;;;;14.73;81.28;99216.09;6072553;23;20093;-80
2021/06/10 03:14:15;;;;;;;2.47;2.30;;;;;;;14.73;80.91;99213.38;6096223;23;20084;-79
2021/06/10 03:16:44;;;;;;;3.42;2.33;;;;;;;14.80;80.05;99222.47;6095718;23;20480;-79
2021/06/10 03:19:10;;;;;;;2.88;2.20;;;;;;;14.86;81.24;99224.44;6096134;23;20080;-80
2021/06/10 03:21:38;;;;;;;2.40;2.20;;;;;;;14.77;81.60;99223.72;6095709;23;20018;-80
2021/06/10 03:24:05;;;;;;;2.42;2.10;;;;;;;14.82;81.00;99223.97;6096280;23;20153;-79
2021/06/10 03:26:33;;;;;;;2.63;2.42;;;;;;;14.90;81.30;99223.88;6048544;23;20026;-79
2021/06/10 03:29:01;;;;;;;3.00;2.50;;;;;;;14.89;82.14;99221.34;6122562;23;20029;-80
2021/06/10 03:31:29;;;;;;;3.58;2.60;;;;;;;14.90;79.69;99228.47;6073055;23;20282;-81
2021/06/10 03:33:55;;;;;;;4.35;3.03;;;;;;;14.89;79.46;99227.63;6120883;23;20073;-80
2021/06/10 03:36:21;;;;;;;3.78;2.65;;;;;;;14.87;79.45;99228.84;6145133;23;20018;-79
2021/06/10 03:38:49;;;;;;;3.25;2.95;;;;;;;14.79;81.45;99220.78;6121697;23;20021;-80
2021/06/10 03:41:16;;;;;;;5.15;2.67;;;;;;;14.83;80.77;99227.53;6122874;23;20124;-80
2021/06/10 03:43:42;;;;;;;3.35;2.88;;;;;;;14.86;80.96;99227.16;6120240;23;20056;-79
2021/06/10 03:46:08;;;;;;;4.10;3.20;;;;;;;14.89;80.71;99221.34;6097595;23;20325;-80
2021/06/10 03:48:37;;;;;;;3.10;2.80;;;;;;;14.92;81.09;99226.41;6124386;23;20022;-83
2021/06/10 03:51:11;;;;;;;3.22;2.80;;;;;;;14.93;80.62;99225.38;6073657;23;20022;-81
2021/06/10 03:53:37;;;;;;;3.10;2.75;;;;;;;14.92;80.78;99227.25;6098092;23;20052;-82
2021/06/10 03:56:03;;;;;;;2.95;2.72;;;;;;;15.03;80.63;99234.09;6124084;23;20017;-78
2021/06/10 03:58:29;;;;;;;3.20;3.00;;;;;;;15.10;80.54;99226.84;6126116;23;20089;-81
2021/06/10 04:00:55;;;;;;;3.00;2.75;;;;;;;15.05;80.22;99226.56;6125210;23;20036;-79
2021/06/10 04:03:20;;;;;;;3.40;3.10;;;;;;;15.02;79.29;99226.94;6125387;23;20021;-78
2021/06/10 04:05:46;;;;;;;3.10;2.90;;;;;;;14.98;79.43;99231.06;6124900;23;20073;-81
2021/06/10 04:08:12;;;;;;;3.50;3.00;;;;;;;15.01;80.70;99225.25;6123685;23;20479;-80
2021/06/10 04:10:38;;;;;;;4.38;2.83;;;;;;;15.02;80.54;99229.66;6076374;23;20029;-78
2021/06/10 04:13:03;;;;;;;3.42;3.00;;;;;;;15.00;80.24;99229.03;6126505;23;20029;-80
2021/06/10 04:15:29;;;;;;;2.95;2.72;;;;;;;15.01;80.59;99230.69;6124568;23;20393;-81
2021/06/10 04:17:55;;;;;;;3.30;3.03;;;;;;;15.14;79.10;99233.59;6126784;23;20329;-81
2021/06/10 04:20:22;;;;;;;3.25;3.05;;;;;;;15.13;78.82;99229.16;6121199;23;20041;-82
2021/06/10 04:22:48;;;;;;;3.22;2.70;;;;;;;15.15;78.45;99229.84;6125940;23;20022;-81
2021/06/10 04:25:14;;;;;;;2.60;2.40;;;;;;;15.15;78.68;99220.81;6124306;23;20498;-80
2021/06/10 04:27:40;;;;;;;3.33;2.33;;;;;;;15.19;78.20;99217.53;6122088;23;20096;-80
2021/06/10 04:30:11;;;;;;;2.10;2.00;;;;;;;15.19;78.27;99217.53;6124045;23;20045;-81
2021/06/10 04:32:37;;;;;;;2.00;1.90;;;;;;;15.24;78.70;99218.81;6097190;23;20026;-82
2021/06/10 04:35:07;;;;;;;2.00;1.90;;;;;;;15.22;78.26;99226.34;6098146;23;20334;-80
2021/06/10 04:37:33;;;;;;;3.08;2.10;;;;;;;15.23;78.17;99225.31;6124450;23;20037;-81
2021/06/10 04:39:59;;;;;;;1.98;1.77;;;;;;;15.12;78.92;99227.50;6126545;23;20086;-81
2021/06/10 04:42:25;;;;;;;2.33;2.10;;;;;;;14.94;78.91;99232.50;6124354;23;20044;-81
2021/06/10 04:44:52;;;;;;;2.78;2.28;;;;;;;14.89;79.06;99234.94;6124999;23;20025;-80
2021/06/10 04:47:18;;;;;;;2.28;2.08;;;;;;;14.76;79.78;99226.59;6124562;23;20028;-82
2021/06/10 04:49:44;;;;;;;2.35;2.15;;;;;;;14.77;79.22;99234.59;6126017;23;20026;-81
2021/06/10 04:52:12;;;;;;;2.95;2.30;;;;;;;14.71;79.54;99243.50;6125542;23;20026;-80
2021/06/10 04:54:38;;;;;;;2.40;2.20;;;;;;;14.70;79.56;99250.81;6124584;23;20036;-78
2021/06/10 04:57:04;;;;;;;2.40;2.20;;;;;;;14.59;80.26;99245.84;6125293;23;20495;-81
2021/06/10 04:59:31;;;;;;;2.63;2.42;;;;;;;14.49;80.55;99253.41;6127724;23;20369;-83
2021/06/10 05:01:56;;;;;;;2.70;2.38;;;;;;;14.42;80.73;99266.06;6126044;23;20038;-80
2021/06/10 05:04:22;;;;;;;2.80;2.42;;;;;;;14.37;81.48;99257.59;6125573;23;20399;-83
2021/06/10 05:06:52;;;;;;;2.45;2.25;;;;;;;14.36;81.85;99253.19;6127188;23;20400;-84
2021/06/10 05:09:18;;;;;;;2.53;2.20;;;;;;;14.40;83.07;99259.94;6128151;23;20022;-82
2021/06/10 05:11:44;;;;;;;2.20;2.10;;;;;;;14.38;81.76;99262.00;6098009;23;20029;-81
2021/06/10 05:14:09;;;;;;;2.53;2.10;;;;;;;14.34;81.43;99255.25;6123880;23;20342;-81
2021/06/10 05:16:35;;;;;;;2.13;1.92;;;;;;;14.43;81.94;99249.53;6125283;23;20014;-81
2021/06/10 05:19:01;;;;;;;2.30;1.67;;;;;;;14.35;80.84;99257.78;6123517;23;20052;-81
2021/06/10 05:21:27;;;;;;;2.30;2.10;;;;;;;14.48;81.62;99259.88;6123582;23;20018;-81
2021/06/10 05:23:53;;;;;;;2.10;2.00;;;;;;;14.45;81.19;99263.81;6124651;23;20026;-83
2021/06/10 05:26:21;;;;;;;2.72;2.00;;;;;;;14.43;81.67;99259.56;6122890;23;20021;-81
2021/06/10 05:28:47;;;;;;;2.13;2.03;;;;;;;14.42;81.27;99258.72;6125194;23;20120;-82
2021/06/10 05:31:13;;;;;;;2.95;1.70;;;;;;;14.54;80.66;99259.16;6126655;23;20026;-81
2021/06/10 05:33:39;;;;;;;2.03;1.92;;;;;;;14.65;81.11;99263.28;6125839;23;20113;-83
2021/06/10 05:36:05;;;;;;;2.22;2.13;;;;;;;14.59;80.56;99256.72;6124893;23;20018;-81
2021/06/10 05:38:32;;;;;;;2.15;1.92;;;;;;;14.56;80.67;99265.25;6124990;23;20022;-83
2021/06/10 05:40:57;;;;;;;2.40;2.20;;;;;;;14.62;81.36;99264.50;6124393;23;20025;-82
2021/06/10 05:43:23;;;;;;;2.08;1.88;;;;;;;14.60;80.64;99269.28;6124420;23;20021;-82
2021/06/10 05:45:51;;;;;;;2.05;1.80;;;;;;;14.67;80.73;99262.06;6123776;23;20049;-82
2021/06/10 05:48:17;;;;;;;2.28;2.00;;;;;;;14.71;80.47;99257.09;6147774;23;20021;-81
2021/06/10 05:50:47;;;;;;;2.65;1.80;;;;;;;14.81;80.12;99275.84;6125559;23;20022;-82
2021/06/10 05:53:15;;;;;;;1.80;1.70;;;;;;;14.75;79.58;99273.91;6122512;23;20043;-83
2021/06/10 05:55:48;;;;;;;2.03;1.80;;;;;;;14.56;80.14;99276.13;6125006;23;20034;-82
2021/06/10 05:58:14;;;;;;;2.05;1.90;;;;;;;14.58;80.41;99276.78;6122406;23;20114;-82
2021/06/10 06:00:41;;;;;;;2.22;1.90;;;;;;;14.63;80.08;99276.25;6125369;23;20022;-84
2021/06/10 06:03:08;;;;;;;3.42;1.90;;;;;;;14.63;80.51;99265.38;6125708;23;20069;-81
2021/06/10 06:05:34;;;;;;;2.08;1.83;;;;;;;14.67;80.67;99278.41;6124634;23;20033;-84
2021/06/10 06:08:00;;;;;;;3.38;1.73;;;;;;;14.69;80.72;99281.75;6127224;23;20018;-80
2021/06/10 06:10:27;;;;;;;1.92;1.77;;;;;;;14.80;80.89;99283.16;6125201;23;20397;-83
2021/06/10 06:12:57;;;;;;;2.03;1.75;;;;;;;14.86;79.94;99270.72;6075941;23;20065;-82
2021/06/10 06:15:23;;;;;;;2.00;1.80;;;;;;;14.83;79.76;99274.63;6127508;23;20049;-82
2021/06/10 06:17:49;;;;;;;2.33;1.95;;;;;;;14.87;80.04;99277.81;6100260;23;20018;-86
2021/06/10 06:20:15;;;;;;;2.78;1.73;;;;;;;14.84;79.82;99275.47;6098306;23;20028;-82
2021/06/10 06:22:44;;;;;;;2.08;1.80;;;;;;;14.85;80.59;99285.34;6124395;23;20100;-83
2021/06/10 06:25:13;;;;;;;2.15;1.90;;;;;;;14.88;80.63;99284.94;6124541;23;20029;-83
2021/06/10 06:27:40;;;;;;;3.15;1.75;;;;;;;14.83;79.57;99282.81;6125173;23;20389;-82
2021/06/10 06:30:08;;;;;;;1.83;1.73;;;;;;;14.71;80.11;99285.16;6124815;23;20453;-83
2021/06/10 06:32:35;;;;;;;1.80;1.70;;;;;;;14.69;80.03;99295.38;6126083;23;20026;-85
2021/06/10 06:35:03;;;;;;;1.75;1.65;;;;;;;14.71;79.97;99298.75;6125624;23;20076;-81
2021/06/10 06:37:29;;;;;;;2.25;1.90;;;;;;;14.68;80.53;99292.84;6076316;23;20026;-82
2021/06/10 06:39:54;;;;;;;2.10;1.90;;;;;;;14.56;80.50;99294.34;6128935;23;20045;-84
2021/06/10 06:42:20;;;;;;;1.88;1.60;;;;;;;14.51;80.06;99288.59;6139316;23;20018;-82
2021/06/10 06:44:46;;;;;;;2.08;1.70;;;;;;;14.45;80.38;99295.59;6141199;23;20418;-81
2021/06/10 06:47:12;;;;;;;2.90;1.83;;;;;;;14.58;80.74;99297.69;6141046;23;20024;-82
2021/06/10 06:49:38;;;;;;;1.77;1.67;;;;;;;14.55;80.30;99296.19;6116280;23;20081;-84
2021/06/10 06:52:07;;;;;;;1.90;1.73;;;;;;;14.53;80.85;99303.72;6140329;23;20029;-82
2021/06/10 06:54:33;;;;;;;2.95;2.00;;;;;;;14.47;80.59;99315.28;6126902;23;20077;-83
2021/06/10 06:56:59;;;;;;;2.10;1.90;;;;;;;14.37;80.92;99312.84;6125533;23;20101;-82
2021/06/10 06:59:24;;;;;;;2.17;1.98;;;;;;;14.33;81.59;99313.38;6135126;23;20029;-83
2021/06/10 07:01:50;;;;;;;2.33;2.13;;;;;;;14.44;82.32;99326.53;6132104;23;20017;-82
2021/06/10 07:04:16;;;;;;;2.30;2.10;;;;;;;14.49;81.57;99335.00;6128016;23;20026;-85
2021/06/10 07:06:42;;;;;;;2.30;2.00;;;;;;;14.39;81.17;99328.97;6128747;23;20028;-85
2021/06/10 07:09:08;;;;;;;3.10;2.00;;;;;;;14.19;81.26;99336.81;6131505;23;20045;-82
2021/06/10 07:11:35;;;;;;;3.05;2.00;;;;;;;14.11;81.74;99337.69;6106093;23;20461;-81
2021/06/10 07:14:02;;;;;;;2.80;2.08;;;;;;;14.03;81.90;99335.03;6126938;23;20444;-81
2021/06/10 07:16:28;;;;;;;2.40;2.20;;;;;;;13.95;83.07;99332.38;6124975;23;20028;-82
2021/06/10 07:18:54;;;;;;;2.80;2.28;;;;;;;13.96;82.99;99339.50;6126099;23;20104;-81
2021/06/10 07:21:20;;;;;;;2.55;2.35;;;;;;;13.91;83.42;99331.06;6097882;23;20049;-81
2021/06/10 07:23:46;;;;;;;2.42;2.20;;;;;;;13.91;84.21;99325.63;6126468;23;20026;-84
2021/06/10 07:26:11;;;;;;;2.75;2.55;;;;;;;13.90;84.45;99316.63;6124360;23;20021;-81
2021/06/10 07:28:37;;;;;;;3.03;2.80;;;;;;;13.87;84.66;99319.69;6123399;23;20018;-81
2021/06/10 07:31:06;;;;;;;3.20;2.90;;;;;;;13.86;85.53;99320.72;6126142;23;20101;-82
2021/06/10 07:33:35;;;;;;;3.22;3.03;;;;;;;13.85;84.72;99323.63;6127031;23;20033;-83
2021/06/10 07:36:02;;;;;;;3.28;2.72;;;;;;;13.86;85.30;99328.03;6128172;23;20021;-82
2021/06/10 07:38:28;;;;;;;2.80;2.60;;;;;;;13.84;85.86;99319.22;6136104;23;20068;-82
2021/06/10 07:40:53;;;;;;;2.90;2.70;;;;;;;13.75;85.78;99326.59;6128857;23;20453;-81
2021/06/10 07:43:19;;;;;;;3.38;2.90;;;;;;;13.75;85.04;99324.72;6129690;23;20013;-85
2021/06/10 07:45:45;;;;;;;5.47;2.75;;;;;;;13.65;85.12;99324.09;6152301;23;20021;-82
2021/06/10 07:48:11;;;;;;;3.17;2.63;;;;;;;13.68;85.55;99315.59;6129283;23;20070;-83
2021/06/10 07:50:36;;;;;;;3.30;3.00;;;;;;;13.70;85.39;99321.66;6132535;23;20025;-82
2021/06/10 07:53:13;;;;;;;3.85;3.30;;;;;;;13.72;85.95;99329.66;6130040;23;20160;-84
2021/06/10 07:55:39;;;;;;;3.50;3.20;;;;;;;13.77;86.26;99319.09;6108216;23;20026;-84
2021/06/10 07:58:05;;;;;;;3.00;2.80;;;;;;;13.80;85.61;99317.88;6133762;23;20516;-83
2021/06/10 08:00:31;;;;;;;3.45;3.13;;;;;;;13.81;85.02;99330.44;6133780;23;20357;-83
2021/06/10 08:02:59;;;;;;;4.43;3.03;;;;;;;13.83;85.75;99328.41;6128586;23;20475;-84
2021/06/10 08:05:25;;;;;;;3.20;2.90;;;;;;;13.74;85.34;99325.72;6129567;23;20022;-82
2021/06/10 08:07:53;;;;;;;3.88;2.90;;;;;;;13.68;85.36;99331.88;6128783;23;20017;-82
2021/06/10 08:10:19;;;;;;;3.47;3.00;;;;;;;13.66;85.48;99333.91;6130661;23;20029;-84
2021/06/10 08:12:46;;;;;;;2.92;2.60;;;;;;;13.51;85.38;99333.00;6155591;23;20025;-82
2021/06/10 08:15:12;;;;;;;2.85;2.63;;;;;;;13.57;85.50;99337.72;6132997;23;20028;-82
2021/06/10 08:17:38;;;;;;;3.15;2.85;;;;;;;13.66;85.40;99342.06;6128721;23;20017;-83
2021/06/10 08:20:07;;;;;;;2.75;2.55;;;;;;;13.63;85.52;99344.28;6131293;23;20097;-85
2021/06/10 08:22:33;;;;;;;2.95;2.65;;;;;;;13.61;85.19;99340.94;6132997;23;20105;-83
2021/06/10 08:24:58;;;;;;;3.60;2.70;;;;;;;13.69;84.60;99343.59;6137623;23;20018;-83
2021/06/10 08:27:25;;;;;;;2.70;2.50;;;;;;;13.72;84.63;99343.25;6107453;23;20344;-83
2021/06/10 08:29:51;;;;;;;2.63;2.40;;;;;;;13.77;84.18;99345.41;6133014;23;20475;-85
2021/06/10 08:32:16;;;;;;;2.63;2.40;;;;;;;13.80;84.25;99353.22;6080678;23;20049;-83
2021/06/10 08:34:42;;;;;;;2.30;2.10;;;;;;;13.91;83.54;99348.19;6129679;23;20025;-83
2021/06/10 08:37:08;;;;;;;2.78;2.20;;;;;;;13.87;83.98;99348.75;6137060;23;20081;-84
2021/06/10 08:39:34;;;;;;;2.85;2.10;;;;;;;13.97;84.01;99349.38;6133520;23;20022;-82
2021/06/10 08:42:03;;;;;;;2.75;2.20;;;;;;;14.01;83.88;99350.69;6128898;23;20022;-81
2021/06/10 08:44:32;;;;;;;4.50;2.17;;;;;;;14.10;84.20;99351.47;6129643;23;20048;-83
2021/06/10 08:46:58;;;;;;;2.75;2.45;;;;;;;14.12;84.39;99355.69;6125826;23;20044;-82
2021/06/10 08:49:24;;;;;;;2.40;2.20;;;;;;;14.21;84.45;99349.16;6128022;23;20022;-84
2021/06/10 08:51:50;;;;;;;3.25;2.47;;;;;;;14.18;83.78;99354.97;6127752;23;20161;-84
2021/06/10 08:54:16;;;;;;;3.28;2.20;;;;;;;14.00;83.29;99346.25;6126308;23;20021;-82
2021/06/10 08:56:43;;;;;;;3.38;2.08;;;;;;;13.99;83.01;99350.84;6127401;23;20036;-85
2021/06/10 08:59:11;;;;;;;2.50;2.30;;;;;;;14.11;83.14;99358.59;6127215;23;20077;-84
2021/06/10 09:01:37;;;;;;;2.53;2.20;;;;;;;14.05;83.38;99354.72;6127517;23;20329;-84
2021/06/10 09:04:04;;;;;;;2.55;1.90;;;;;;;14.11;83.60;99351.28;6132972;23;20425;-82
2021/06/10 09:06:45;;;;;;;2.38;2.15;;;;;;;14.14;84.08;99358.22;6129004;23;20029;-83
2021/06/10 09:09:11;;;;;;;3.30;1.90;;;;;;;14.12;83.40;99358.44;6107096;23;20357;-84
2021/06/10 09:11:38;;;;;;;3.22;2.05;;;;;;;14.14;83.53;99359.06;6132841;23;20022;-84
2021/06/10 09:14:08;;;;;;;3.15;1.80;;;;;;;14.03;83.33;99366.81;6102470;23;20026;-83
2021/06/10 09:16:36;;;;;;;3.38;2.10;;;;;;;13.97;84.17;99368.38;6126671;23;20024;-84
2021/06/10 09:19:15;;;;;;;3.28;2.17;;;;;;;13.94;84.26;99366.03;6124492;23;20022;-81
2021/06/10 09:21:58;;;;;;;3.40;2.28;;;;;;;14.01;85.49;99364.28;6104151;23;20135;-83
2021/06/10 09:24:34;;;;;;;3.67;2.85;;;;;;;14.02;84.64;99360.53;6134749;23;20021;-82
2021/06/10 09:27:05;;;;;;;2.88;2.15;;;;;;;14.07;84.25;99368.97;6131581;23;20019;-82
2021/06/10 09:29:38;;;;;;;2.50;2.28;;;;;;;14.11;84.97;99367.59;6129018;23;20021;-81
2021/06/10 09:32:06;;;;;;;2.50;2.30;;;;;;;14.11;85.50;99359.44;6129686;23;20040;-84
2021/06/10 09:34:54;;;;;;;2.55;2.20;;;;;;;14.24;84.82;99373.28;6126386;23;20329;-83
2021/06/10 09:37:33;;;;;;;2.63;2.10;;;;;;;14.25;83.68;99365.97;6109808;23;20070;-83
2021/06/10 09:40:05;;;;;;;4.15;2.20;;;;;;;14.17;83.45;99369.59;6129037;23;20030;-82
2021/06/10 09:42:38;;;;;;;2.67;2.00;;;;;;;14.23;84.28;99374.31;6127674;23;20053;-84
2021/06/10 09:45:14;;;;;;;2.60;2.00;;;;;;;14.30;83.82;99374.44;6136192;23;20112;-84
2021/06/10 09:47:46;;;;;;;2.25;1.98;;;;;;;14.33;83.97;99378.63;6132782;23;20022;-83
2021/06/10 09:50:42;;;;;;;;;;;;;;;;;;;;;
2021/06/10 09:53:32;;;;;;;2.80;2.10;;;;;;;14.27;84.31;99373.94;6130232;23;20060;-84
2021/06/10 09:56:08;;;;;;;2.83;2.13;;;;;;;14.34;84.59;99374.91;6125393;23;20101;-82
2021/06/10 09:58:38;;;;;;;2.55;1.77;;;;;;;14.20;84.31;99371.94;6128345;23;20022;-81
2021/06/10 10:01:15;;;;;;;2.47;1.80;;;;;;;14.24;84.35;99376.00;6125259;23;20356;-83
2021/06/10 10:04:02;;;;;;;2.30;2.10;;;;;;;14.21;83.98;99381.78;6125825;23;20421;-84
2021/06/10 10:06:37;;;;;;;3.78;2.17;;;;;;;14.26;84.83;99380.41;6125217;23;20022;-83
2021/06/10 10:09:07;;;;;;;2.28;2.00;;;;;;;14.22;84.93;99380.78;6124769;23;20423;-83
2021/06/10 10:11:36;;;;;;;2.22;2.13;;;;;;;14.37;86.43;99379.97;6124679;23;20348;-82
2021/06/10 10:14:05;;;;;;;2.80;2.33;;;;;;;14.41;86.17;99375.88;6127813;23;20018;-84
2021/06/10 10:16:36;;;;;;;2.90;2.70;;;;;;;14.50;86.17;99369.34;6126508;23;20033;-83
2021/06/10 10:19:03;;;;;;;2.28;2.08;;;;;;;14.57;84.45;99372.19;6134574;23;20029;-82
2021/06/10 10:21:32;;;;;;;2.20;2.00;;;;;;;14.48;84.63;99372.25;6134240;23;20030;-83
2021/06/10 10:24:09;;;;;;;2.35;2.15;;;;;;;14.54;84.59;99362.50;6109231;23;20329;-83
2021/06/10 10:26:41;;;;;;;2.50;2.30;;;;;;;14.65;85.28;99367.50;6128476;23;20022;-83
2021/06/10 10:29:13;;;;;;;2.40;2.25;;;;;;;14.62;84.48;99367.88;6109299;23;20049;-84
2021/06/10 10:31:44;;;;;;;2.25;2.05;;;;;;;14.60;84.80;99364.50;6112086;23;20137;-81
2021/06/10 10:34:27;;;;;;;2.40;2.20;;;;;;;14.79;83.81;99378.63;6066735;23;20013;-84
2021/06/10 10:36:57;;;;;;;2.40;2.10;;;;;;;14.83;84.61;99369.06;6088213;23;20128;-82
2021/06/10 10:39:35;;;;;;;2.65;2.45;;;;;;;14.76;84.32;99374.38;6131617;23;20032;-82
2021/06/10 10:42:06;;;;;;;2.40;2.20;;;;;;;14.71;83.62;99357.78;6128914;23;20018;-82
2021/06/10 10:44:33;;;;;;;2.50;2.30;;;;;;;14.64;83.93;99365.84;6156233;23;20076;-82
2021/06/10 10:46:59;;;;;;;2.53;2.33;;;;;;;14.79;83.92;99373.19;6126729;23;20022;-84
2021/06/10 10:49:30;;;;;;;2.58;2.38;;;;;;;14.88;83.55;99374.78;6152832;23;20069;-84
2021/06/10 10:52:13;;;;;;;2.58;2.38;;;;;;;14.92;83.68;99370.66;6126391;23;20021;-83
2021/06/10 10:54:40;;;;;;;2.80;2.60;;;;;;;14.97;83.45;99361.94;6131196;23;20026;-83
2021/06/10 10:57:36;;;;;;;2.90;2.70;;;;;;;15.12;84.60;99363.63;6106230;23;20017;-84
2021/06/10 11:00:18;;;;;;;2.80;2.60;;;;;;;15.16;83.02;99375.81;6131141;23;20028;-85
2021/06/10 11:02:50;;;;;;;2.78;2.55;;;;;;;15.22;82.73;99368.81;6128052;23;20091;-84
2021/06/10 11:05:29;;;;;;;2.90;2.70;;;;;;;15.22;82.91;99373.41;6107743;23;20006;-84
2021/06/10 11:07:55;;;;;;;3.13;2.90;;;;;;;15.13;82.48;99370.75;6127970;23;20021;-82
2021/06/10 11:10:40;;;;;;;3.30;2.97;;;;;;;15.18;83.08;99373.78;6127876;23;20022;-83
2021/06/10 11:13:21;;;;;;;3.13;2.92;;;;;;;15.27;82.79;99360.06;6123642;23;20295;-81
2021/06/10 11:15:51;;;;;;;3.38;3.08;;;;;;;15.34;83.78;99367.28;6125673;23;20341;-84
2021/06/10 11:18:42;;;;;;;3.28;2.97;;;;;;;15.37;82.89;99372.34;6101217;23;20121;-82
2021/06/10 11:21:09;;;;;;;3.50;2.75;;;;;;;15.52;82.50;99371.50;6126547;23;20022;-82
2021/06/10 11:23:35;;;;;;;3.30;2.70;;;;;;;15.52;81.73;99364.16;6124641;23;20018;-82
2021/06/10 11:26:03;;;;;;;3.28;3.08;;;;;;;15.55;82.52;99352.88;6125317;23;20025;-83
2021/06/10 11:28:35;;;;;;;3.15;2.90;;;;;;;15.60;82.03;99355.03;6105638;23;20022;-84
2021/06/10 11:31:15;;;;;;;3.47;3.08;;;;;;;15.64;82.14;99357.19;6129925;23;20018;-83
2021/06/10 11:33:42;;;;;;;3.05;2.70;;;;;;;15.56;82.17;99365.47;6128302;23;20018;-83
2021/06/10 11:36:10;;;;;;;5.25;3.38;;;;;;;15.62;82.19;99353.81;6107311;23;20026;-84
2021/06/10 11:38:44;;;;;;;4.80;4.40;;;;;;;15.53;82.21;99359.56;6130679;23;20029;-84
2021/06/10 11:41:31;;;;;;;4.00;3.63;;;;;;;15.64;81.69;99351.72;6104751;23;20117;-80